sensor_id;sensor_type;location;lat;lon;timestamp;pressure;altitude;pressure_sealevel;temperature;humidity
42705;BME280;28342;42.594;23.414;2023-05-10T00:02:24;94761.06;;;9.76;93.86
42705;BME280;28342;42.594;23.414;2023-05-10T00:04:50;94773.16;;;9.82;96.88
42705;BME280;28342;42.594;23.414;2023-05-10T00:07:16;94774.19;;;9.95;96.64
42705;BME280;28342;42.594;23.414;2023-05-10T00:09:43;94770.28;;;9.93;94.76
42705;BME280;28342;42.594;23.414;2023-05-10T00:12:08;94764.91;;;9.84;93.57
42705;BME280;28342;42.594;23.414;2023-05-10T00:14:34;94757.81;;;9.79;95.35
42705;BME280;28342;42.594;23.414;2023-05-10T00:17:00;94778.75;;;9.81;92.51
42705;BME280;28342;42.594;23.414;2023-05-10T00:19:25;94776.19;;;9.89;92.87
42705;BME280;28342;42.594;23.414;2023-05-10T00:21:50;94762.84;;;9.81;93.60
42705;BME280;28342;42.594;23.414;2023-05-10T00:24:16;94772.06;;;9.83;96.23
42705;BME280;28342;42.594;23.414;2023-05-10T00:26:41;94759.69;;;9.79;96.10
42705;BME280;28342;42.594;23.414;2023-05-10T00:29:07;94766.78;;;9.83;96.59
42705;BME280;28342;42.594;23.414;2023-05-10T00:31:33;94761.28;;;9.66;94.54
42705;BME280;28342;42.594;23.414;2023-05-10T00:33:58;94748.72;;;9.58;96.48
42705;BME280;28342;42.594;23.414;2023-05-10T00:36:24;94762.44;;;9.60;96.94
42705;BME280;28342;42.594;23.414;2023-05-10T00:38:49;94759.13;;;9.54;95.17
42705;BME280;28342;42.594;23.414;2023-05-10T00:41:15;94769.28;;;9.47;93.04
42705;BME280;28342;42.594;23.414;2023-05-10T00:43:41;94750.25;;;9.32;98.45
42705;BME280;28342;42.594;23.414;2023-05-10T00:46:06;94751.84;;;9.46;97.28
42705;BME280;28342;42.594;23.414;2023-05-10T00:48:32;94753.97;;;9.31;96.22
42705;BME280;28342;42.594;23.414;2023-05-10T00:50:58;94745.97;;;9.36;95.65
42705;BME280;28342;42.594;23.414;2023-05-10T00:53:24;94746.34;;;9.43;96.03
42705;BME280;28342;42.594;23.414;2023-05-10T00:55:49;94754.19;;;9.48;96.43
42705;BME280;28342;42.594;23.414;2023-05-10T00:58:16;94759.50;;;9.48;98.27
42705;BME280;28342;42.594;23.414;2023-05-10T01:00:42;94748.97;;;9.29;99.17
42705;BME280;28342;42.594;23.414;2023-05-10T01:03:10;94756.91;;;9.15;95.30
42705;BME280;28342;42.594;23.414;2023-05-10T01:05:36;94742.09;;;9.14;93.91
42705;BME280;28342;42.594;23.414;2023-05-10T01:08:02;94742.59;;;9.16;93.18
42705;BME280;28342;42.594;23.414;2023-05-10T01:10:27;94749.69;;;9.35;93.51
42705;BME280;28342;42.594;23.414;2023-05-10T01:12:53;94751.63;;;9.29;94.26
42705;BME280;28342;42.594;23.414;2023-05-10T01:15:20;94755.75;;;9.21;94.03
42705;BME280;28342;42.594;23.414;2023-05-10T01:17:46;94745.34;;;9.11;94.96
42705;BME280;28342;42.594;23.414;2023-05-10T01:20:12;94748.22;;;8.96;96.01
42705;BME280;28342;42.594;23.414;2023-05-10T01:31:33;94724.78;;;8.57;92.10
42705;BME280;28342;42.594;23.414;2023-05-10T01:34:21;94723.00;;;8.52;92.82
42705;BME280;28342;42.594;23.414;2023-05-10T01:36:55;94736.97;;;8.58;93.84
42705;BME280;28342;42.594;23.414;2023-05-10T01:42:11;94723.31;;;8.32;93.13
42705;BME280;28342;42.594;23.414;2023-05-10T01:44:43;94728.59;;;8.32;92.30
42705;BME280;28342;42.594;23.414;2023-05-10T01:47:15;94734.09;;;8.35;93.90
42705;BME280;28342;42.594;23.414;2023-05-10T01:49:53;94728.88;;;8.49;95.79
42705;BME280;28342;42.594;23.414;2023-05-10T01:52:30;94730.44;;;8.50;96.10
42705;BME280;28342;42.594;23.414;2023-05-10T01:55:03;94712.97;;;8.35;94.72
42705;BME280;28342;42.594;23.414;2023-05-10T01:57:35;94711.25;;;8.45;96.55
42705;BME280;28342;42.594;23.414;2023-05-10T02:00:03;94735.75;;;8.50;97.28
42705;BME280;28342;42.594;23.414;2023-05-10T02:02:30;94733.59;;;8.52;96.64
42705;BME280;28342;42.594;23.414;2023-05-10T02:04:58;94729.28;;;8.56;92.57
42705;BME280;28342;42.594;23.414;2023-05-10T02:07:26;94754.03;;;8.28;88.90
42705;BME280;28342;42.594;23.414;2023-05-10T02:09:53;94738.50;;;8.02;90.49
42705;BME280;28342;42.594;23.414;2023-05-10T02:12:20;94743.41;;;7.90;91.13
42705;BME280;28342;42.594;23.414;2023-05-10T02:14:48;94724.69;;;7.68;89.19
42705;BME280;28342;42.594;23.414;2023-05-10T02:17:16;94742.53;;;7.76;90.77
42705;BME280;28342;42.594;23.414;2023-05-10T02:19:43;94723.81;;;7.54;86.91
42705;BME280;28342;42.594;23.414;2023-05-10T02:22:11;94733.00;;;7.56;87.96
42705;BME280;28342;42.594;23.414;2023-05-10T02:24:38;94752.94;;;7.67;88.28
42705;BME280;28342;42.594;23.414;2023-05-10T02:27:06;94739.75;;;7.67;91.57
42705;BME280;28342;42.594;23.414;2023-05-10T02:29:32;94736.75;;;7.50;90.56
42705;BME280;28342;42.594;23.414;2023-05-10T02:31:59;94739.28;;;7.60;90.19
42705;BME280;28342;42.594;23.414;2023-05-10T02:34:26;94740.47;;;7.73;88.74
42705;BME280;28342;42.594;23.414;2023-05-10T02:36:53;94734.75;;;7.42;87.87
42705;BME280;28342;42.594;23.414;2023-05-10T02:39:21;94748.16;;;7.45;89.21
42705;BME280;28342;42.594;23.414;2023-05-10T02:41:48;94729.19;;;7.43;91.21
42705;BME280;28342;42.594;23.414;2023-05-10T02:44:19;94753.66;;;7.49;93.62
42705;BME280;28342;42.594;23.414;2023-05-10T02:46:45;94730.53;;;7.41;89.66
42705;BME280;28342;42.594;23.414;2023-05-10T02:49:12;94751.41;;;7.61;92.63
42705;BME280;28342;42.594;23.414;2023-05-10T02:51:42;94745.03;;;7.43;90.83
42705;BME280;28342;42.594;23.414;2023-05-10T02:54:20;94750.47;;;7.28;93.18
42705;BME280;28342;42.594;23.414;2023-05-10T02:56:57;94748.72;;;7.42;93.45
42705;BME280;28342;42.594;23.414;2023-05-10T02:59:22;94741.41;;;7.34;92.60
42705;BME280;28342;42.594;23.414;2023-05-10T03:01:48;94727.19;;;7.35;91.21
42705;BME280;28342;42.594;23.414;2023-05-10T03:04:14;94739.84;;;7.33;90.02
42705;BME280;28342;42.594;23.414;2023-05-10T03:06:41;94737.94;;;7.15;89.81
42705;BME280;28342;42.594;23.414;2023-05-10T03:09:07;94722.44;;;7.08;90.54
42705;BME280;28342;42.594;23.414;2023-05-10T03:20:04;94729.97;;;7.20;95.06
42705;BME280;28342;42.594;23.414;2023-05-10T03:22:37;94703.97;;;7.08;92.09
42705;BME280;28342;42.594;23.414;2023-05-10T03:25:07;94723.78;;;7.30;91.89
42705;BME280;28342;42.594;23.414;2023-05-10T03:27:35;94741.75;;;7.28;88.59
42705;BME280;28342;42.594;23.414;2023-05-10T03:30:02;94738.59;;;7.02;90.03
42705;BME280;28342;42.594;23.414;2023-05-10T03:32:28;94745.72;;;7.01;91.56
42705;BME280;28342;42.594;23.414;2023-05-10T03:34:55;94729.06;;;7.06;90.46
42705;BME280;28342;42.594;23.414;2023-05-10T03:37:20;94735.50;;;6.95;90.66
42705;BME280;28342;42.594;23.414;2023-05-10T03:39:46;94735.44;;;7.00;91.73
42705;BME280;28342;42.594;23.414;2023-05-10T03:42:11;94745.91;;;7.10;92.39
42705;BME280;28342;42.594;23.414;2023-05-10T03:44:40;94721.97;;;7.01;90.54
42705;BME280;28342;42.594;23.414;2023-05-10T03:47:05;94736.94;;;7.11;89.15
42705;BME280;28342;42.594;23.414;2023-05-10T03:49:31;94753.66;;;7.25;89.98
42705;BME280;28342;42.594;23.414;2023-05-10T03:51:57;94752.81;;;7.30;94.87
42705;BME280;28342;42.594;23.414;2023-05-10T03:54:22;94758.84;;;7.35;92.99
42705;BME280;28342;42.594;23.414;2023-05-10T03:56:48;94746.84;;;7.19;93.04
42705;BME280;28342;42.594;23.414;2023-05-10T03:59:13;94745.34;;;7.13;90.74
42705;BME280;28342;42.594;23.414;2023-05-10T04:01:39;94746.81;;;7.24;91.88
42705;BME280;28342;42.594;23.414;2023-05-10T04:04:04;94753.72;;;7.20;91.44
42705;BME280;28342;42.594;23.414;2023-05-10T04:06:29;94763.09;;;7.31;90.19
42705;BME280;28342;42.594;23.414;2023-05-10T04:08:56;94747.47;;;7.35;91.31
42705;BME280;28342;42.594;23.414;2023-05-10T04:11:21;94766.59;;;7.51;91.71
42705;BME280;28342;42.594;23.414;2023-05-10T04:13:47;94765.34;;;7.43;93.14
42705;BME280;28342;42.594;23.414;2023-05-10T04:16:12;94756.59;;;7.24;88.32
42705;BME280;28342;42.594;23.414;2023-05-10T04:18:37;94761.50;;;7.35;89.86
42705;BME280;28342;42.594;23.414;2023-05-10T04:21:04;94741.03;;;7.22;90.83
42705;BME280;28342;42.594;23.414;2023-05-10T04:23:35;94774.53;;;7.51;87.60
42705;BME280;28342;42.594;23.414;2023-05-10T04:26:01;94755.81;;;7.23;86.41
42705;BME280;28342;42.594;23.414;2023-05-10T04:28:27;94767.31;;;7.32;86.75
42705;BME280;28342;42.594;23.414;2023-05-10T04:30:52;94774.13;;;7.38;89.01
42705;BME280;28342;42.594;23.414;2023-05-10T04:33:18;94748.84;;;7.32;89.83
42705;BME280;28342;42.594;23.414;2023-05-10T04:35:43;94767.59;;;7.55;88.62
42705;BME280;28342;42.594;23.414;2023-05-10T04:38:10;94764.47;;;7.53;87.93
42705;BME280;28342;42.594;23.414;2023-05-10T04:40:35;94773.00;;;7.68;91.79
42705;BME280;28342;42.594;23.414;2023-05-10T04:43:01;94771.09;;;7.74;93.91
42705;BME280;28342;42.594;23.414;2023-05-10T04:45:26;94766.97;;;7.63;90.87
42705;BME280;28342;42.594;23.414;2023-05-10T04:47:52;94765.75;;;7.55;87.09
42705;BME280;28342;42.594;23.414;2023-05-10T04:50:17;94780.75;;;7.60;88.09
42705;BME280;28342;42.594;23.414;2023-05-10T04:52:42;94773.88;;;7.59;87.96
42705;BME280;28342;42.594;23.414;2023-05-10T04:55:08;94754.84;;;7.62;92.22
42705;BME280;28342;42.594;23.414;2023-05-10T04:57:35;94758.00;;;7.40;87.61
42705;BME280;28342;42.594;23.414;2023-05-10T05:00:00;94771.16;;;7.69;88.02
42705;BME280;28342;42.594;23.414;2023-05-10T05:02:25;94772.31;;;7.58;92.93
42705;BME280;28342;42.594;23.414;2023-05-10T05:04:51;94770.75;;;7.57;90.60
42705;BME280;28342;42.594;23.414;2023-05-10T05:07:16;94769.41;;;7.59;88.30
42705;BME280;28342;42.594;23.414;2023-05-10T05:09:42;94767.94;;;7.72;89.15
42705;BME280;28342;42.594;23.414;2023-05-10T05:12:07;94766.94;;;7.68;87.64
42705;BME280;28342;42.594;23.414;2023-05-10T05:14:33;94776.47;;;7.88;90.50
42705;BME280;28342;42.594;23.414;2023-05-10T05:16:58;94779.38;;;7.86;90.23
42705;BME280;28342;42.594;23.414;2023-05-10T05:19:24;94763.47;;;7.91;86.83
42705;BME280;28342;42.594;23.414;2023-05-10T05:21:49;94769.03;;;7.90;85.36
42705;BME280;28342;42.594;23.414;2023-05-10T05:24:14;94772.06;;;8.02;85.55
42705;BME280;28342;42.594;23.414;2023-05-10T05:26:40;94778.56;;;8.09;89.83
42705;BME280;28342;42.594;23.414;2023-05-10T05:29:08;94763.41;;;7.96;91.67
42705;BME280;28342;42.594;23.414;2023-05-10T05:31:33;94777.44;;;8.16;89.87
42705;BME280;28342;42.594;23.414;2023-05-10T05:33:59;94787.34;;;8.24;87.64
42705;BME280;28342;42.594;23.414;2023-05-10T05:36:24;94788.78;;;8.16;86.04
42705;BME280;28342;42.594;23.414;2023-05-10T05:38:50;94799.66;;;8.15;86.69
42705;BME280;28342;42.594;23.414;2023-05-10T05:41:15;94777.06;;;8.03;86.03
42705;BME280;28342;42.594;23.414;2023-05-10T05:43:40;94786.97;;;8.12;87.86
42705;BME280;28342;42.594;23.414;2023-05-10T05:46:06;94793.91;;;8.07;87.36
42705;BME280;28342;42.594;23.414;2023-05-10T05:48:31;94788.41;;;8.04;88.53
42705;BME280;28342;42.594;23.414;2023-05-10T05:50:57;94795.06;;;8.20;91.60
42705;BME280;28342;42.594;23.414;2023-05-10T05:53:23;94782.50;;;8.12;90.21
42705;BME280;28342;42.594;23.414;2023-05-10T05:55:57;94782.84;;;8.05;89.39
42705;BME280;28342;42.594;23.414;2023-05-10T05:58:22;94803.16;;;8.29;91.40
42705;BME280;28342;42.594;23.414;2023-05-10T06:00:48;94794.56;;;7.99;87.32
42705;BME280;28342;42.594;23.414;2023-05-10T06:03:14;94805.06;;;8.23;89.51
42705;BME280;28342;42.594;23.414;2023-05-10T06:05:39;94801.50;;;8.14;87.42
42705;BME280;28342;42.594;23.414;2023-05-10T06:08:05;94793.88;;;8.13;89.39
42705;BME280;28342;42.594;23.414;2023-05-10T06:10:30;94813.13;;;8.37;88.83
42705;BME280;28342;42.594;23.414;2023-05-10T06:12:55;94809.00;;;8.26;86.59
42705;BME280;28342;42.594;23.414;2023-05-10T06:15:21;94807.09;;;8.31;88.49
42705;BME280;28342;42.594;23.414;2023-05-10T06:17:47;94802.41;;;8.47;89.98
42705;BME280;28342;42.594;23.414;2023-05-10T06:20:15;94809.28;;;8.48;90.84
42705;BME280;28342;42.594;23.414;2023-05-10T06:22:41;94797.63;;;8.49;90.52
42705;BME280;28342;42.594;23.414;2023-05-10T06:25:07;94779.97;;;8.45;90.17
42705;BME280;28342;42.594;23.414;2023-05-10T06:27:32;94799.28;;;8.45;88.48
42705;BME280;28342;42.594;23.414;2023-05-10T06:29:58;94806.13;;;8.46;90.63
42705;BME280;28342;42.594;23.414;2023-05-10T06:32:23;94818.44;;;8.32;86.27
42705;BME280;28342;42.594;23.414;2023-05-10T06:34:48;94815.84;;;8.27;88.15
42705;BME280;28342;42.594;23.414;2023-05-10T06:37:14;94810.84;;;8.06;85.87
42705;BME280;28342;42.594;23.414;2023-05-10T06:39:39;94812.41;;;8.07;86.82
42705;BME280;28342;42.594;23.414;2023-05-10T06:42:05;94829.59;;;8.29;88.54
42705;BME280;28342;42.594;23.414;2023-05-10T06:44:30;94820.13;;;8.23;86.47
42705;BME280;28342;42.594;23.414;2023-05-10T06:46:56;94823.47;;;8.09;85.55
42705;BME280;28342;42.594;23.414;2023-05-10T06:49:21;94822.41;;;8.10;88.47
42705;BME280;28342;42.594;23.414;2023-05-10T06:51:47;94806.69;;;8.00;90.48
42705;BME280;28342;42.594;23.414;2023-05-10T06:54:13;94806.00;;;8.14;91.52
42705;BME280;28342;42.594;23.414;2023-05-10T06:56:39;94815.22;;;8.16;90.52
42705;BME280;28342;42.594;23.414;2023-05-10T06:59:04;94821.13;;;8.27;90.85
42705;BME280;28342;42.594;23.414;2023-05-10T07:01:30;94817.50;;;8.23;87.96
42705;BME280;28342;42.594;23.414;2023-05-10T07:03:55;94812.63;;;8.35;88.79
42705;BME280;28342;42.594;23.414;2023-05-10T07:06:21;94824.44;;;8.43;86.22
42705;BME280;28342;42.594;23.414;2023-05-10T07:08:46;94821.94;;;8.27;86.59
42705;BME280;28342;42.594;23.414;2023-05-10T07:11:12;94813.84;;;8.19;87.17
42705;BME280;28342;42.594;23.414;2023-05-10T07:13:37;94822.66;;;8.14;85.72
42705;BME280;28342;42.594;23.414;2023-05-10T07:16:04;94818.16;;;7.91;87.37
42705;BME280;28342;42.594;23.414;2023-05-10T07:18:31;94817.69;;;8.07;89.36
42705;BME280;28342;42.594;23.414;2023-05-10T07:20:57;94821.84;;;8.14;87.45
42705;BME280;28342;42.594;23.414;2023-05-10T07:23:22;94820.28;;;8.13;86.49
42705;BME280;28342;42.594;23.414;2023-05-10T07:25:49;94830.91;;;8.26;89.13
42705;BME280;28342;42.594;23.414;2023-05-10T07:28:17;94814.19;;;8.36;88.99
42705;BME280;28342;42.594;23.414;2023-05-10T07:30:43;94827.41;;;8.36;86.87
42705;BME280;28342;42.594;23.414;2023-05-10T07:33:10;94825.44;;;8.23;85.86
42705;BME280;28342;42.594;23.414;2023-05-10T07:35:36;94826.34;;;8.37;85.34
42705;BME280;28342;42.594;23.414;2023-05-10T07:38:02;94827.19;;;8.51;88.06
42705;BME280;28342;42.594;23.414;2023-05-10T07:40:27;94831.19;;;8.67;87.39
42705;BME280;28342;42.594;23.414;2023-05-10T07:42:53;94838.44;;;8.62;87.18
42705;BME280;28342;42.594;23.414;2023-05-10T07:45:18;94832.84;;;8.63;87.22
42705;BME280;28342;42.594;23.414;2023-05-10T07:47:44;94797.63;;;8.49;87.11
42705;BME280;28342;42.594;23.414;2023-05-10T07:50:09;94821.78;;;8.61;83.56
42705;BME280;28342;42.594;23.414;2023-05-10T07:52:35;94842.94;;;8.61;84.43
42705;BME280;28342;42.594;23.414;2023-05-10T07:55:00;94842.44;;;8.59;84.52
42705;BME280;28342;42.594;23.414;2023-05-10T07:57:27;94847.28;;;8.71;87.60
42705;BME280;28342;42.594;23.414;2023-05-10T07:59:52;94851.28;;;8.68;82.53
42705;BME280;28342;42.594;23.414;2023-05-10T08:02:18;94848.63;;;8.68;86.35
42705;BME280;28342;42.594;23.414;2023-05-10T08:04:43;94845.50;;;8.66;87.30
42705;BME280;28342;42.594;23.414;2023-05-10T08:07:09;94844.28;;;8.59;82.78
42705;BME280;28342;42.594;23.414;2023-05-10T08:09:36;94838.13;;;8.45;83.92
42705;BME280;28342;42.594;23.414;2023-05-10T08:12:01;94848.63;;;8.68;86.16
42705;BME280;28342;42.594;23.414;2023-05-10T08:14:28;94846.06;;;8.63;83.37
42705;BME280;28342;42.594;23.414;2023-05-10T08:16:56;94827.28;;;8.46;83.21
42705;BME280;28342;42.594;23.414;2023-05-10T08:19:22;94844.84;;;8.56;84.54
42705;BME280;28342;42.594;23.414;2023-05-10T08:21:48;94856.44;;;8.79;84.57
42705;BME280;28342;42.594;23.414;2023-05-10T08:24:13;94841.66;;;8.78;87.16
42705;BME280;28342;42.594;23.414;2023-05-10T08:26:39;94840.47;;;8.84;87.03
42705;BME280;28342;42.594;23.414;2023-05-10T08:29:04;94845.94;;;8.74;84.87
42705;BME280;28342;42.594;23.414;2023-05-10T08:31:30;94845.56;;;8.80;86.08
42705;BME280;28342;42.594;23.414;2023-05-10T08:33:55;94849.28;;;8.79;84.29
42705;BME280;28342;42.594;23.414;2023-05-10T08:36:21;94857.22;;;8.98;85.38
42705;BME280;28342;42.594;23.414;2023-05-10T08:38:52;94849.28;;;8.98;84.00
42705;BME280;28342;42.594;23.414;2023-05-10T08:41:20;94847.06;;;9.05;84.04
42705;BME280;28342;42.594;23.414;2023-05-10T08:43:46;94855.56;;;9.02;84.84
42705;BME280;28342;42.594;23.414;2023-05-10T08:46:16;94832.13;;;8.95;85.21
42705;BME280;28342;42.594;23.414;2023-05-10T08:48:46;94847.75;;;9.11;84.63
42705;BME280;28342;42.594;23.414;2023-05-10T08:51:17;94849.16;;;9.22;83.50
42705;BME280;28342;42.594;23.414;2023-05-10T08:53:44;94851.22;;;8.92;82.33
42705;BME280;28342;42.594;23.414;2023-05-10T08:56:09;94863.91;;;9.09;83.25
42705;BME280;28342;42.594;23.414;2023-05-10T08:58:36;94859.81;;;9.17;83.10
42705;BME280;28342;42.594;23.414;2023-05-10T09:01:02;94845.94;;;8.74;82.29
42705;BME280;28342;42.594;23.414;2023-05-10T09:03:28;94846.75;;;8.88;84.65
42705;BME280;28342;42.594;23.414;2023-05-10T09:05:54;94852.13;;;8.83;83.34
42705;BME280;28342;42.594;23.414;2023-05-10T09:08:21;94857.22;;;8.98;83.81
42705;BME280;28342;42.594;23.414;2023-05-10T09:10:50;94855.56;;;9.02;84.73
42705;BME280;28342;42.594;23.414;2023-05-10T09:13:16;94850.41;;;9.11;85.98
42705;BME280;28342;42.594;23.414;2023-05-10T09:15:44;94853.47;;;8.99;83.96
42705;BME280;28342;42.594;23.414;2023-05-10T09:18:10;94856.72;;;8.96;83.42
42705;BME280;28342;42.594;23.414;2023-05-10T09:20:35;94845.06;;;8.97;83.94
42705;BME280;28342;42.594;23.414;2023-05-10T09:23:01;94850.84;;;8.99;81.72
42705;BME280;28342;42.594;23.414;2023-05-10T09:25:26;94848.78;;;8.96;83.97
42705;BME280;28342;42.594;23.414;2023-05-10T09:27:52;94851.63;;;8.99;81.88
42705;BME280;28342;42.594;23.414;2023-05-10T09:30:29;94856.22;;;9.26;83.61
42705;BME280;28342;42.594;23.414;2023-05-10T09:32:56;94843.91;;;9.36;84.41
42705;BME280;28342;42.594;23.414;2023-05-10T09:35:28;94846.38;;;9.46;83.68
42705;BME280;28342;42.594;23.414;2023-05-10T09:37:55;94837.13;;;9.29;80.55
42705;BME280;28342;42.594;23.414;2023-05-10T09:40:26;94832.81;;;9.34;82.88
42705;BME280;28342;42.594;23.414;2023-05-10T09:43:06;94817.13;;;9.23;81.27
42705;BME280;28342;42.594;23.414;2023-05-10T09:45:34;94835.63;;;9.56;82.15
42705;BME280;28342;42.594;23.414;2023-05-10T09:48:01;94830.50;;;9.46;80.77
42705;BME280;28342;42.594;23.414;2023-05-10T09:50:27;94842.25;;;9.40;81.81
42705;BME280;28342;42.594;23.414;2023-05-10T09:53:01;94825.19;;;9.46;80.85
42705;BME280;28342;42.594;23.414;2023-05-10T09:55:54;94836.91;;;9.72;82.32
42705;BME280;28342;42.594;23.414;2023-05-10T09:58:20;94839.19;;;9.65;83.07
42705;BME280;28342;42.594;23.414;2023-05-10T10:00:47;94802.28;;;9.69;81.11
42705;BME280;28342;42.594;23.414;2023-05-10T10:03:19;94823.19;;;9.98;81.37
42705;BME280;28342;42.594;23.414;2023-05-10T10:05:45;94825.06;;;10.11;79.63
42705;BME280;28342;42.594;23.414;2023-05-10T10:08:11;94814.47;;;9.83;78.63
42705;BME280;28342;42.594;23.414;2023-05-10T10:10:38;94813.38;;;9.84;79.31
42705;BME280;28342;42.594;23.414;2023-05-10T10:13:06;94823.69;;;9.86;81.47
42705;BME280;28342;42.594;23.414;2023-05-10T10:15:33;94801.59;;;9.91;82.57
42705;BME280;28342;42.594;23.414;2023-05-10T10:17:59;94820.72;;;10.15;80.55
42705;BME280;28342;42.594;23.414;2023-05-10T10:20:25;94792.25;;;10.07;80.22
42705;BME280;28342;42.594;23.414;2023-05-10T10:22:51;94787.97;;;9.97;78.65
42705;BME280;28342;42.594;23.414;2023-05-10T10:25:17;94808.34;;;10.10;80.32
42705;BME280;28342;42.594;23.414;2023-05-10T10:33:30;94812.66;;;10.47;80.85
42705;BME280;28342;42.594;23.414;2023-05-10T10:36:00;94808.56;;;10.14;80.57
42705;BME280;28342;42.594;23.414;2023-05-10T10:41:12;94814.25;;;10.21;80.79
42705;BME280;28342;42.594;23.414;2023-05-10T10:49:48;94816.22;;;10.02;77.93
42705;BME280;28342;42.594;23.414;2023-05-10T10:52:47;94816.41;;;10.19;79.93
42705;BME280;28342;42.594;23.414;2023-05-10T10:57:56;94818.41;;;10.27;79.02
42705;BME280;28342;42.594;23.414;2023-05-10T11:00:31;94808.34;;;10.10;77.97
42705;BME280;28342;42.594;23.414;2023-05-10T11:03:04;94802.56;;;9.95;78.97
42705;BME280;28342;42.594;23.414;2023-05-10T11:08:07;94791.00;;;9.91;78.45
42705;BME280;28342;42.594;23.414;2023-05-10T11:10:34;94820.94;;;10.05;78.11
42705;BME280;28342;42.594;23.414;2023-05-10T11:13:05;94814.47;;;9.97;78.80
42705;BME280;28342;42.594;23.414;2023-05-10T11:15:34;94810.13;;;10.15;79.98
42705;BME280;28342;42.594;23.414;2023-05-10T11:20:41;94808.56;;;10.41;78.17
42705;BME280;28342;42.594;23.414;2023-05-10T11:23:15;94802.06;;;10.47;79.67
42705;BME280;28342;42.594;23.414;2023-05-10T11:25:43;94801.94;;;10.53;80.06
42705;BME280;28342;42.594;23.414;2023-05-10T11:28:10;94822.06;;;10.54;78.75
42705;BME280;28342;42.594;23.414;2023-05-10T11:30:38;94821.47;;;10.57;78.21
42705;BME280;28342;42.594;23.414;2023-05-10T11:33:05;94815.34;;;10.70;78.78
42705;BME280;28342;42.594;23.414;2023-05-10T11:35:30;94818.72;;;10.62;78.57
42705;BME280;28342;42.594;23.414;2023-05-10T11:37:56;94813.22;;;10.58;78.13
42705;BME280;28342;42.594;23.414;2023-05-10T11:40:21;94814.38;;;10.66;79.52
42705;BME280;28342;42.594;23.414;2023-05-10T11:42:50;94809.47;;;10.73;80.09
42705;BME280;28342;42.594;23.414;2023-05-10T11:45:15;94823.56;;;10.82;78.77
42705;BME280;28342;42.594;23.414;2023-05-10T11:47:44;94814.28;;;10.93;79.33
42705;BME280;28342;42.594;23.414;2023-05-10T11:50:10;94799.97;;;10.81;77.94
42705;BME280;28342;42.594;23.414;2023-05-10T11:52:36;94823.09;;;10.80;76.84
42705;BME280;28342;42.594;23.414;2023-05-10T11:55:05;94814.75;;;10.73;77.95
42705;BME280;28342;42.594;23.414;2023-05-10T11:57:30;94819.34;;;10.81;78.47
42705;BME280;28342;42.594;23.414;2023-05-10T11:59:57;94819.06;;;10.69;78.25
42705;BME280;28342;42.594;23.414;2023-05-10T12:02:23;94792.78;;;10.59;79.76
42705;BME280;28342;42.594;23.414;2023-05-10T12:04:50;94791.88;;;10.63;79.54
42705;BME280;28342;42.594;23.414;2023-05-10T12:07:16;94802.94;;;10.79;77.35
42705;BME280;28342;42.594;23.414;2023-05-10T12:10:05;94811.84;;;10.61;77.53
42705;BME280;28342;42.594;23.414;2023-05-10T12:12:47;94813.56;;;10.79;77.88
42705;BME280;28342;42.594;23.414;2023-05-10T12:15:23;94796.16;;;10.51;77.84
42705;BME280;28342;42.594;23.414;2023-05-10T12:17:49;94807.97;;;10.67;78.06
42705;BME280;28342;42.594;23.414;2023-05-10T12:22:52;94792.94;;;10.76;77.21
42705;BME280;28342;42.594;23.414;2023-05-10T12:25:19;94789.53;;;10.84;76.33
42705;BME280;28342;42.594;23.414;2023-05-10T12:27:53;94778.16;;;10.84;76.91
42705;BME280;28342;42.594;23.414;2023-05-10T12:30:23;94792.22;;;11.06;76.64
42705;BME280;28342;42.594;23.414;2023-05-10T12:32:49;94780.88;;;10.92;75.43
42705;BME280;28342;42.594;23.414;2023-05-10T12:35:15;94777.72;;;10.68;76.08
42705;BME280;28342;42.594;23.414;2023-05-10T12:37:42;94780.91;;;11.01;76.21
42705;BME280;28342;42.594;23.414;2023-05-10T12:40:09;94776.63;;;11.14;75.23
42705;BME280;28342;42.594;23.414;2023-05-10T12:42:36;94767.56;;;11.15;75.05
42705;BME280;28342;42.594;23.414;2023-05-10T12:45:03;94780.38;;;11.44;74.79
42705;BME280;28342;42.594;23.414;2023-05-10T12:47:29;94768.91;;;11.26;74.55
42705;BME280;28342;42.594;23.414;2023-05-10T12:49:55;94776.66;;;11.45;74.50
42705;BME280;28342;42.594;23.414;2023-05-10T12:52:20;94763.56;;;11.57;76.46
42705;BME280;28342;42.594;23.414;2023-05-10T12:54:46;94773.88;;;11.81;75.09
42705;BME280;28342;42.594;23.414;2023-05-10T12:57:12;94769.06;;;11.60;71.93
42705;BME280;28342;42.594;23.414;2023-05-10T12:59:38;94776.56;;;11.58;72.93
42705;BME280;28342;42.594;23.414;2023-05-10T13:02:03;94766.38;;;11.52;76.92
42705;BME280;28342;42.594;23.414;2023-05-10T13:04:29;94777.34;;;11.59;75.08
42705;BME280;28342;42.594;23.414;2023-05-10T13:06:54;94774.44;;;11.78;76.06
42705;BME280;28342;42.594;23.414;2023-05-10T13:09:27;94763.81;;;11.78;72.88
42705;BME280;28342;42.594;23.414;2023-05-10T13:11:54;94756.59;;;11.70;72.78
42705;BME280;28342;42.594;23.414;2023-05-10T13:14:20;94751.59;;;11.77;73.12
42705;BME280;28342;42.594;23.414;2023-05-10T13:16:46;94762.47;;;11.80;73.36
42705;BME280;28342;42.594;23.414;2023-05-10T13:19:15;94763.72;;;11.83;73.41
42705;BME280;28342;42.594;23.414;2023-05-10T13:21:42;94756.63;;;11.78;73.42
42705;BME280;28342;42.594;23.414;2023-05-10T13:24:09;94732.75;;;11.47;73.08
42705;BME280;28342;42.594;23.414;2023-05-10T13:26:36;94738.03;;;11.38;75.23
42705;BME280;28342;42.594;23.414;2023-05-10T13:29:02;94742.97;;;11.23;73.49
42705;BME280;28342;42.594;23.414;2023-05-10T13:31:28;94745.03;;;11.03;74.14
42705;BME280;28342;42.594;23.414;2023-05-10T13:33:54;94743.81;;;11.10;73.40
42705;BME280;28342;42.594;23.414;2023-05-10T13:36:19;94740.16;;;11.28;74.61
42705;BME280;28342;42.594;23.414;2023-05-10T13:38:45;94736.69;;;11.19;74.46
42705;BME280;28342;42.594;23.414;2023-05-10T13:41:10;94734.38;;;11.26;75.74
42705;BME280;28342;42.594;23.414;2023-05-10T13:43:36;94729.22;;;11.21;74.66